createdAt,value
2022-09-12T00:04:16.267Z,2.70
2022-09-12T00:09:17.638Z,2.67
2022-09-12T00:14:19.325Z,3.17
2022-09-12T00:19:20.784Z,3.70
2022-09-12T00:24:22.315Z,4.78
2022-09-12T00:29:23.735Z,6.25
2022-09-12T00:34:25.096Z,6.68
2022-09-12T00:39:26.452Z,7.15
2022-09-12T00:44:27.790Z,8.45
2022-09-12T00:49:31.720Z,9.55
2022-09-12T00:54:35.290Z,9.25
2022-09-12T00:59:51.136Z,10.45
2022-09-12T01:04:53.145Z,11.15
2022-09-12T01:09:54.656Z,11.57
2022-09-12T01:14:56.108Z,11.35
2022-09-12T01:19:57.430Z,11.13
2022-09-12T01:25:14.567Z,12.15
2022-09-12T01:30:23.481Z,10.98
2022-09-12T01:35:28.663Z,12.98
2022-09-12T01:40:43.961Z,11.50
2022-09-12T01:45:47.641Z,12.57
2022-09-12T01:50:54.419Z,11.57
2022-09-12T01:56:14.607Z,12.48
2022-09-12T02:01:18.948Z,11.00
2022-09-12T02:06:30.514Z,10.60
2022-09-12T02:11:33.219Z,11.10
2022-09-12T02:16:37.429Z,10.52
2022-09-12T02:21:39.975Z,10.80
2022-09-12T02:26:43.979Z,12.70
2022-09-12T02:31:47.188Z,11.50
2022-09-12T02:36:57.463Z,11.75
2022-09-12T02:42:00.943Z,11.15
2022-09-12T02:47:08.190Z,12.07
2022-09-12T02:52:09.644Z,11.93
2022-09-12T02:57:23.101Z,12.23
2022-09-12T03:02:43.524Z,12.13
2022-09-12T03:08:03.729Z,13.50
2022-09-12T03:13:14.402Z,13.13
2022-09-12T03:18:19.772Z,13.32
2022-09-12T03:23:25.483Z,14.15
2022-09-12T03:28:27.178Z,14.13
2022-09-12T03:33:28.589Z,14.63
2022-09-12T03:38:29.983Z,15.75
2022-09-12T03:43:31.370Z,15.43
2022-09-12T03:48:32.829Z,15.10
2022-09-12T03:53:34.229Z,14.77
2022-09-12T03:58:36.399Z,13.43
2022-09-12T04:03:39.101Z,14.65
2022-09-12T04:08:40.965Z,13.93
2022-09-12T04:13:43.356Z,12.93
2022-09-12T04:18:45.482Z,14.35
2022-09-12T04:23:47.629Z,14.43
2022-09-12T04:28:53.689Z,14.60
2022-09-12T04:33:58.954Z,14.20
2022-09-12T04:39:01.142Z,14.60
2022-09-12T04:44:04.331Z,13.18
2022-09-12T04:49:05.922Z,13.50
2022-09-12T04:54:10.264Z,13.90
2022-09-12T04:59:12.718Z,13.32
2022-09-12T05:04:14.200Z,13.07
2022-09-12T05:09:16.321Z,14.75
2022-09-12T05:14:17.681Z,12.73
2022-09-12T05:19:19.053Z,12.98
2022-09-12T05:24:20.912Z,14.13
2022-09-12T05:29:22.333Z,13.57
2022-09-12T05:34:23.777Z,13.40
2022-09-12T05:39:25.657Z,13.73
2022-09-12T05:44:27.085Z,13.98
2022-09-12T05:49:28.744Z,13.35
2022-09-12T05:54:31.634Z,14.00
2022-09-12T05:59:33.248Z,13.35
2022-09-12T06:04:34.650Z,14.73
2022-09-12T06:09:36.056Z,12.85
2022-09-12T06:14:37.380Z,13.15
2022-09-12T06:19:38.798Z,12.98
2022-09-12T06:24:40.213Z,13.63
2022-09-12T06:29:41.576Z,13.85
2022-09-12T06:34:43.164Z,13.68
2022-09-12T06:39:44.594Z,12.73
2022-09-12T06:44:46.011Z,11.77
2022-09-12T06:49:47.448Z,13.98
2022-09-12T06:54:49.202Z,12.23
2022-09-12T06:59:50.872Z,14.55
2022-09-12T07:04:52.353Z,12.82
2022-09-12T07:09:54.227Z,12.82
2022-09-12T07:14:55.751Z,13.82
2022-09-12T07:19:57.108Z,14.82
2022-09-12T07:24:58.672Z,14.05
2022-09-12T07:30:00.724Z,13.23
2022-09-12T07:35:02.181Z,14.32
2022-09-12T07:40:03.757Z,15.27
2022-09-12T07:45:05.234Z,14.13
2022-09-12T07:50:07.018Z,14.98
2022-09-12T07:55:08.453Z,15.20
2022-09-12T08:00:10.918Z,15.35
2022-09-12T08:05:12.438Z,15.88
2022-09-12T08:10:13.913Z,14.07
2022-09-12T08:15:15.916Z,14.90
2022-09-12T08:20:18.124Z,17.58
2022-09-12T08:25:19.568Z,17.33
2022-09-12T08:30:20.991Z,16.63
2022-09-12T08:35:22.420Z,17.77
2022-09-12T08:40:24.042Z,18.00
2022-09-12T08:45:42.360Z,16.08
2022-09-12T08:50:49.321Z,17.40
2022-09-12T08:55:58.794Z,16.65
2022-09-12T09:01:07.374Z,14.37
2022-09-12T09:06:08.781Z,13.73
2022-09-12T09:11:47.983Z,14.93
2022-09-12T09:16:50.659Z,13.25
2022-09-12T09:21:52.042Z,12.32
2022-09-12T09:26:57.266Z,11.85
2022-09-12T09:32:00.144Z,11.95
2022-09-12T09:37:19.468Z,11.90
2022-09-12T09:42:32.755Z,9.40
2022-09-12T09:47:34.098Z,11.68
2022-09-12T09:52:36.056Z,9.88
2022-09-12T09:57:42.095Z,9.05
2022-09-12T10:02:43.783Z,10.65
2022-09-12T10:07:50.490Z,11.68
2022-09-12T10:13:05.970Z,10.50
2022-09-12T10:18:07.532Z,10.70
2022-09-12T10:23:29.503Z,11.00
2022-09-12T10:28:34.230Z,10.50
2022-09-12T10:33:41.018Z,10.68
2022-09-12T10:38:49.563Z,11.35
2022-09-12T10:43:51.120Z,9.65
2022-09-12T10:49:11.981Z,9.73
2022-09-12T10:54:15.370Z,10.27
2022-09-12T10:59:19.881Z,11.60
2022-09-12T11:04:21.735Z,11.63
2022-09-12T11:09:26.236Z,11.82
2022-09-12T11:14:30.635Z,10.75
2022-09-12T11:19:32.097Z,8.90
2022-09-12T11:24:37.196Z,8.52
2022-09-12T11:29:41.632Z,10.73
2022-09-12T11:34:53.427Z,9.18
2022-09-12T11:39:56.751Z,9.15
2022-09-12T11:45:04.655Z,9.50
2022-09-12T11:50:15.490Z,9.73
2022-09-12T11:55:19.296Z,7.72
2022-09-12T12:00:22.477Z,7.72
2022-09-12T12:05:23.836Z,7.20
2022-09-12T12:10:38.941Z,6.88
2022-09-12T12:15:41.058Z,6.75
2022-09-12T12:20:42.736Z,7.07
2022-09-12T12:25:52.869Z,7.07
2022-09-12T12:30:54.396Z,6.22
2022-09-12T12:35:59.271Z,7.10
2022-09-12T12:41:19.049Z,7.93
2022-09-12T12:46:22.470Z,7.55
2022-09-12T12:51:26.976Z,7.22
2022-09-12T12:56:41.769Z,6.22
2022-09-12T13:01:55.185Z,7.95
2022-09-12T13:06:58.799Z,7.70
2022-09-12T13:12:00.850Z,8.27
2022-09-12T13:17:04.709Z,6.45
2022-09-12T13:22:07.532Z,6.72
2022-09-12T13:27:22.440Z,6.53
2022-09-12T13:32:23.977Z,5.68
2022-09-12T13:37:25.309Z,5.72
2022-09-12T13:42:48.603Z,4.93
2022-09-12T13:47:58.476Z,4.88
2022-09-12T13:53:22.090Z,4.60
2022-09-12T13:58:25.191Z,3.70
2022-09-12T14:03:46.915Z,3.63
2022-09-12T14:08:48.759Z,3.80
2022-09-12T14:13:51.143Z,4.35
2022-09-12T14:18:52.683Z,4.20
2022-09-12T14:23:54.963Z,4.15
2022-09-12T14:28:56.469Z,3.83
2022-09-12T14:34:17.443Z,5.30
2022-09-12T14:39:39.874Z,4.15
2022-09-12T14:44:42.137Z,4.70
2022-09-12T14:49:43.704Z,4.80
2022-09-12T14:54:55.179Z,4.45
2022-09-12T15:00:17.877Z,4.50
2022-09-12T15:05:20.901Z,4.18
2022-09-12T15:10:27.395Z,4.15
2022-09-12T15:15:28.783Z,3.58
2022-09-12T15:20:30.175Z,3.70
2022-09-12T15:25:31.620Z,3.50
2022-09-12T15:30:33.021Z,3.42
2022-09-12T15:35:35.247Z,3.50
2022-09-12T15:40:36.710Z,3.60
2022-09-12T15:45:38.123Z,4.05
2022-09-12T15:50:41.318Z,3.63
2022-09-12T15:55:43.683Z,3.75
2022-09-12T16:00:45.181Z,3.58
2022-09-12T16:05:46.607Z,3.47
2022-09-12T16:10:49.561Z,3.28
2022-09-12T16:15:51.294Z,3.22
2022-09-12T16:20:53.184Z,3.97
2022-09-12T16:26:02.325Z,3.40
2022-09-12T16:31:05.542Z,2.88
2022-09-12T16:36:07.058Z,3.33
2022-09-12T16:41:08.679Z,3.70
2022-09-12T16:46:11.634Z,3.17
2022-09-12T16:51:13.272Z,3.22
2022-09-12T16:56:15.108Z,3.10
2022-09-12T17:01:21.372Z,2.97
2022-09-12T17:06:23.517Z,3.08
2022-09-12T17:11:26.909Z,2.83
2022-09-12T17:16:28.745Z,3.20
2022-09-12T17:21:30.298Z,3.10
2022-09-12T17:26:31.745Z,2.80
2022-09-12T17:31:33.582Z,2.88
2022-09-12T17:36:35.325Z,2.90
2022-09-12T17:41:37.673Z,2.97
2022-09-12T17:46:39.489Z,2.70
2022-09-12T17:51:41.316Z,2.78
2022-09-12T17:56:43.394Z,3.22
2022-09-12T18:02:03.553Z,3.10
2022-09-12T18:07:05.031Z,2.90
2022-09-12T18:12:07.157Z,3.20
2022-09-12T18:17:08.977Z,3.22
2022-09-12T18:22:11.377Z,3.30
2022-09-12T18:27:12.790Z,3.15
2022-09-12T18:32:14.170Z,3.83
2022-09-12T18:37:15.643Z,3.63
2022-09-12T18:42:17.191Z,3.67
2022-09-12T18:47:18.632Z,3.05
2022-09-12T18:52:20.132Z,3.20
2022-09-12T18:57:21.663Z,3.55
2022-09-12T19:02:24.714Z,4.25
2022-09-12T19:07:26.184Z,3.70
2022-09-12T19:12:27.555Z,3.83
2022-09-12T19:17:29.008Z,4.03
2022-09-12T19:22:30.956Z,4.72
2022-09-12T19:27:32.346Z,3.70
2022-09-12T19:32:33.736Z,4.10
2022-09-12T19:37:35.089Z,4.07
2022-09-12T19:42:36.528Z,4.13
2022-09-12T19:47:38.258Z,4.10
2022-09-12T19:52:40.160Z,4.40
2022-09-12T19:57:41.544Z,4.40
2022-09-12T20:02:43.034Z,4.53
2022-09-12T20:07:44.481Z,4.90
2022-09-12T20:12:45.839Z,5.82
2022-09-12T20:17:47.203Z,5.70
2022-09-12T20:22:52.043Z,5.80
2022-09-12T20:27:55.932Z,6.13
2022-09-12T20:33:00.899Z,6.03
2022-09-12T20:38:02.329Z,6.35
2022-09-12T20:43:03.701Z,5.53
2022-09-12T20:48:05.054Z,6.13
2022-09-12T20:53:06.438Z,5.55
2022-09-12T20:58:08.260Z,5.80
2022-09-12T21:03:09.638Z,6.40
2022-09-12T21:08:11.182Z,6.47
2022-09-12T21:13:12.990Z,7.68
2022-09-12T21:18:14.509Z,7.25
2022-09-12T21:23:15.887Z,7.78
2022-09-12T21:28:17.581Z,7.18
2022-09-12T21:33:19.805Z,6.82
2022-09-12T21:38:21.174Z,7.68
2022-09-12T21:43:22.503Z,7.97
2022-09-12T21:48:23.880Z,7.68
2022-09-12T21:53:25.294Z,7.30
2022-09-12T21:58:26.668Z,7.43
2022-09-12T22:03:28.645Z,7.85
2022-09-12T22:08:30.737Z,7.63
2022-09-12T22:13:32.319Z,8.00
2022-09-12T22:18:34.685Z,7.50
2022-09-12T22:23:54.875Z,7.78
2022-09-12T22:28:56.320Z,7.45
2022-09-12T22:33:58.543Z,7.30
2022-09-12T22:39:00.103Z,8.90
2022-09-12T22:44:01.659Z,8.30
2022-09-12T22:49:04.695Z,8.43
2022-09-12T22:54:06.478Z,8.30
2022-09-12T22:59:07.845Z,7.03
2022-09-12T23:04:10.633Z,6.10
2022-09-12T23:09:11.996Z,5.20
2022-09-12T23:14:13.403Z,5.55
2022-09-12T23:19:14.760Z,5.03
2022-09-12T23:24:16.223Z,5.07
2022-09-12T23:29:17.640Z,5.40
2022-09-12T23:34:19.002Z,6.60
2022-09-12T23:39:20.418Z,6.85
2022-09-12T23:44:21.799Z,6.43
2022-09-12T23:49:23.220Z,6.45
2022-09-12T23:54:25.701Z,5.80
2022-09-12T23:59:27.169Z,6.07
